createdAt,value
2019-05-10T00:00:27.704Z,12.57
2019-05-10T00:03:16.667Z,12.55
2019-05-10T00:06:05.811Z,12.67
2019-05-10T00:08:47.802Z,12.76
2019-05-10T00:11:30.021Z,12.72
2019-05-10T00:14:19.834Z,12.62
2019-05-10T00:16:53.311Z,12.65
2019-05-10T00:19:24.928Z,12.60
2019-05-10T00:21:56.126Z,12.51
2019-05-10T00:24:27.376Z,12.53
2019-05-10T00:26:58.689Z,12.62
2019-05-10T00:29:30.293Z,12.64
2019-05-10T00:32:01.778Z,12.46
2019-05-10T00:34:33.480Z,12.63
2019-05-10T00:37:04.883Z,12.69
2019-05-10T00:39:36.506Z,12.64
2019-05-10T00:42:07.736Z,12.63
2019-05-10T00:44:39.973Z,12.64
2019-05-10T00:47:11.168Z,12.54
2019-05-10T00:49:42.864Z,12.54
2019-05-10T00:52:14.108Z,12.68
2019-05-10T00:54:45.371Z,12.74
2019-05-10T00:57:16.856Z,12.85
2019-05-10T00:59:48.061Z,12.72
2019-05-10T01:02:19.402Z,12.77
2019-05-10T01:04:50.693Z,12.65
2019-05-10T01:07:22.408Z,12.77
2019-05-10T01:09:54.031Z,12.80
2019-05-10T01:12:25.223Z,12.76
2019-05-10T01:14:56.497Z,12.62
2019-05-10T01:17:27.733Z,12.70
2019-05-10T01:19:58.985Z,12.76
2019-05-10T01:22:31.717Z,12.81
2019-05-10T01:25:02.915Z,12.84
2019-05-10T01:27:34.145Z,12.51
2019-05-10T01:30:06.512Z,12.38
2019-05-10T01:32:37.675Z,12.16
2019-05-10T01:35:09.077Z,12.08
2019-05-10T01:37:41.536Z,12.18
2019-05-10T01:40:13.407Z,12.14
2019-05-10T01:42:44.603Z,12.18
2019-05-10T01:45:16.185Z,11.98
2019-05-10T01:47:57.121Z,12.11
2019-05-10T01:50:28.938Z,11.95
2019-05-10T01:53:04.413Z,11.98
2019-05-10T01:55:50.946Z,11.89
2019-05-10T01:58:10.325Z,11.89
2019-05-10T02:00:41.499Z,11.99
2019-05-10T02:03:12.856Z,12.23
2019-05-10T02:05:44.339Z,12.34
2019-05-10T02:08:15.580Z,12.37
2019-05-10T02:10:46.801Z,12.28
2019-05-10T02:13:18.008Z,12.27
2019-05-10T02:15:49.787Z,12.32
2019-05-10T02:18:21.041Z,12.19
2019-05-10T02:20:52.328Z,12.23
2019-05-10T02:23:23.633Z,12.31
2019-05-10T02:26:08.432Z,12.46
2019-05-10T02:28:27.656Z,12.51
2019-05-10T02:30:58.980Z,12.22
2019-05-10T02:33:30.321Z,12.00
2019-05-10T02:36:01.527Z,12.03
2019-05-10T02:38:33.233Z,11.88
2019-05-10T02:41:04.538Z,11.83
2019-05-10T02:43:35.756Z,11.90
2019-05-10T02:46:07.065Z,12.03
2019-05-10T02:48:38.312Z,12.09
2019-05-10T02:51:09.539Z,12.10
2019-05-10T02:53:40.902Z,12.17
2019-05-10T02:56:29.882Z,12.17
2019-05-10T02:58:48.668Z,12.18
2019-05-10T03:01:23.392Z,12.24
2019-05-10T03:03:56.134Z,12.22
2019-05-10T03:06:29.184Z,12.29
2019-05-10T03:09:04.609Z,12.21
2019-05-10T03:11:48.306Z,12.11
2019-05-10T03:14:19.955Z,11.95
2019-05-10T03:16:52.923Z,11.92
2019-05-10T03:19:24.086Z,11.90
2019-05-10T03:22:25.650Z,11.98
2019-05-10T03:25:01.958Z,11.85
2019-05-10T03:27:33.884Z,11.87
2019-05-10T03:30:05.496Z,11.92
2019-05-10T03:32:36.779Z,11.94
2019-05-10T03:35:09.261Z,12.00
2019-05-10T03:37:40.993Z,12.06
2019-05-10T03:40:12.305Z,12.09
2019-05-10T03:42:43.509Z,12.05
2019-05-10T03:45:14.864Z,12.01
2019-05-10T03:47:47.315Z,12.07
2019-05-10T03:50:19.030Z,12.04
2019-05-10T03:52:52.355Z,12.07
2019-05-10T03:55:23.112Z,12.04
2019-05-10T03:57:54.339Z,11.99
2019-05-10T04:00:25.853Z,12.05
2019-05-10T04:02:57.213Z,12.10
2019-05-10T04:05:28.841Z,12.08
2019-05-10T04:08:00.097Z,12.10
2019-05-10T04:10:31.406Z,12.18
2019-05-10T04:13:02.915Z,12.16
2019-05-10T04:15:35.950Z,12.12
2019-05-10T04:18:07.216Z,12.06
2019-05-10T04:20:41.123Z,12.09
2019-05-10T04:23:12.426Z,12.05
2019-05-10T04:25:43.739Z,12.03
2019-05-10T04:28:14.952Z,11.96
2019-05-10T04:30:46.792Z,11.95
2019-05-10T04:33:18.009Z,11.93
2019-05-10T04:35:49.259Z,12.09
2019-05-10T04:38:20.540Z,12.08
2019-05-10T04:40:51.749Z,12.07
2019-05-10T04:43:23.098Z,12.08
2019-05-10T04:45:54.321Z,12.19
2019-05-10T04:48:25.468Z,12.25
2019-05-10T04:50:58.029Z,12.30
2019-05-10T04:53:29.376Z,12.38
2019-05-10T04:56:00.750Z,12.46
2019-05-10T04:58:32.109Z,12.48
2019-05-10T05:01:03.451Z,12.43
2019-05-10T05:03:35.042Z,12.50
2019-05-10T05:06:06.328Z,12.69
2019-05-10T05:08:38.574Z,12.74
2019-05-10T05:11:10.586Z,12.80
2019-05-10T05:13:42.554Z,12.67
2019-05-10T05:16:13.893Z,12.75
2019-05-10T05:18:45.682Z,12.86
2019-05-10T05:21:17.128Z,12.95
2019-05-10T05:23:49.038Z,12.90
2019-05-10T05:26:20.548Z,12.90
2019-05-10T05:28:52.490Z,12.79
2019-05-10T05:31:24.232Z,12.74
2019-05-10T05:33:59.183Z,12.71
2019-05-10T05:36:29.660Z,12.74
2019-05-10T05:39:01.189Z,12.70
2019-05-10T05:41:47.841Z,12.86
2019-05-10T05:44:06.888Z,12.82
2019-05-10T05:46:38.176Z,12.60
2019-05-10T05:49:09.731Z,12.33
2019-05-10T05:51:41.298Z,12.15
2019-05-10T05:54:15.266Z,12.28
2019-05-10T05:56:50.858Z,12.41
2019-05-10T05:59:23.632Z,12.58
2019-05-10T06:01:54.319Z,12.47
2019-05-10T06:04:25.501Z,12.43
2019-05-10T06:06:59.183Z,12.49
2019-05-10T06:09:31.950Z,12.54
2019-05-10T06:12:07.377Z,12.54
2019-05-10T06:14:36.675Z,12.54
2019-05-10T06:17:08.123Z,12.48
2019-05-10T06:19:39.482Z,12.56
2019-05-10T06:22:10.751Z,12.39
2019-05-10T06:24:46.628Z,12.13
2019-05-10T06:27:17.543Z,12.10
2019-05-10T06:29:49.404Z,12.13
2019-05-10T06:32:22.059Z,12.29
2019-05-10T06:34:55.092Z,12.19
2019-05-10T06:37:26.651Z,12.03
2019-05-10T06:40:01.254Z,11.76
2019-05-10T06:42:34.722Z,11.82
2019-05-10T06:45:14.381Z,11.83
2019-05-10T06:47:41.899Z,11.82
2019-05-10T06:50:14.022Z,11.69
2019-05-10T06:52:45.424Z,11.55
2019-05-10T06:55:17.113Z,11.72
2019-05-10T06:57:50.376Z,11.76
2019-05-10T07:00:22.345Z,11.62
2019-05-10T07:02:53.688Z,11.73
2019-05-10T07:05:24.964Z,11.66
2019-05-10T07:08:00.006Z,11.79
2019-05-10T07:10:33.643Z,11.78
2019-05-10T07:13:03.526Z,11.78
2019-05-10T07:15:41.527Z,11.64
2019-05-10T07:18:11.631Z,11.61
2019-05-10T07:20:43.593Z,11.68
2019-05-10T07:23:14.811Z,11.59
2019-05-10T07:25:46.745Z,11.73
2019-05-10T07:28:18.253Z,11.86
2019-05-10T07:30:49.449Z,11.89
2019-05-10T07:33:20.641Z,11.78
2019-05-10T07:35:51.887Z,11.84
2019-05-10T07:38:31.000Z,12.07
2019-05-10T07:40:58.424Z,12.22
2019-05-10T07:43:29.693Z,12.25
2019-05-10T07:46:06.244Z,12.30
2019-05-10T07:48:34.157Z,12.45
2019-05-10T07:51:05.747Z,12.49
2019-05-10T07:54:04.518Z,12.58
2019-05-10T07:56:33.571Z,12.48
2019-05-10T07:59:04.794Z,12.46
2019-05-10T08:01:36.056Z,12.49
2019-05-10T08:04:09.016Z,12.56
2019-05-10T08:06:52.029Z,12.56
2019-05-10T08:09:21.762Z,12.60
2019-05-10T08:11:54.048Z,12.53
2019-05-10T08:14:28.349Z,12.75
2019-05-10T08:17:05.835Z,12.98
2019-05-10T08:19:37.659Z,12.43
2019-05-10T08:22:09.201Z,12.81
2019-05-10T08:24:44.531Z,12.79
2019-05-10T08:27:14.826Z,12.84
2019-05-10T08:29:52.942Z,12.63
2019-05-10T08:32:25.402Z,12.58
2019-05-10T08:34:55.856Z,13.07
2019-05-10T08:37:33.508Z,13.01
2019-05-10T08:39:59.763Z,12.80
2019-05-10T08:42:43.739Z,12.63
2019-05-10T08:45:08.632Z,12.68
2019-05-10T08:47:42.450Z,12.76
2019-05-10T08:50:28.785Z,12.72
2019-05-10T08:52:47.719Z,12.67
2019-05-10T08:55:19.351Z,13.13
2019-05-10T08:57:52.536Z,13.79
2019-05-10T09:00:41.739Z,13.90
2019-05-10T09:03:09.404Z,13.50
2019-05-10T09:05:40.045Z,13.70
2019-05-10T09:08:19.571Z,13.51
2019-05-10T09:10:45.014Z,13.33
2019-05-10T09:13:16.631Z,13.24
2019-05-10T09:15:52.402Z,13.78
2019-05-10T09:18:23.120Z,13.83
2019-05-10T09:21:00.328Z,13.54
2019-05-10T09:23:28.242Z,13.65
2019-05-10T09:26:03.647Z,13.76
2019-05-10T09:28:33.533Z,13.60
2019-05-10T09:31:17.373Z,13.66
2019-05-10T09:33:43.403Z,13.66
2019-05-10T09:36:12.425Z,13.44
2019-05-10T09:38:46.393Z,13.08
2019-05-10T09:41:17.209Z,13.01
2019-05-10T09:45:53.207Z,13.41
2019-05-10T09:48:24.843Z,13.58
2019-05-10T09:50:58.547Z,13.74
2019-05-10T09:53:30.509Z,13.76
2019-05-10T09:56:03.399Z,13.89
2019-05-10T09:58:38.491Z,13.59
2019-05-10T10:01:14.823Z,13.75
2019-05-10T10:03:44.985Z,13.74
2019-05-10T10:06:16.990Z,13.36
2019-05-10T10:08:53.200Z,13.13
2019-05-10T10:11:21.849Z,13.36
2019-05-10T10:13:59.161Z,13.35
2019-05-10T10:16:28.169Z,13.35
2019-05-10T10:19:01.245Z,13.17
2019-05-10T10:21:35.466Z,13.02
2019-05-10T10:24:15.572Z,12.97
2019-05-10T10:26:48.132Z,13.02
2019-05-10T10:29:19.679Z,12.61
2019-05-10T10:31:55.943Z,12.53
2019-05-10T10:34:27.254Z,12.34
2019-05-10T10:36:58.778Z,12.29
2019-05-10T10:39:30.158Z,12.33
2019-05-10T10:42:02.494Z,12.31
2019-05-10T10:44:37.110Z,12.15
2019-05-10T10:47:08.391Z,12.18
2019-05-10T10:49:40.283Z,12.15
2019-05-10T10:52:13.500Z,11.92
2019-05-10T10:54:48.055Z,11.99
2019-05-10T10:57:19.528Z,11.84
2019-05-10T10:59:52.195Z,12.07
2019-05-10T11:02:32.812Z,11.87
2019-05-10T11:05:00.424Z,12.09
2019-05-10T11:10:17.212Z,12.34
2019-05-10T11:12:42.686Z,12.29
2019-05-10T11:15:16.405Z,12.55
2019-05-10T11:17:50.542Z,12.76
2019-05-10T11:20:23.932Z,12.92
2019-05-10T11:23:01.532Z,12.89
2019-05-10T11:25:32.992Z,12.94
2019-05-10T11:28:09.067Z,12.83
2019-05-10T11:30:45.739Z,12.89
2019-05-10T11:33:27.229Z,12.76
2019-05-10T11:35:51.479Z,12.26
2019-05-10T11:38:23.036Z,12.35
2019-05-10T11:40:55.778Z,12.23
2019-05-10T11:43:27.213Z,12.04
2019-05-10T11:46:00.951Z,11.89
2019-05-10T11:48:37.394Z,11.86
2019-05-10T11:51:12.517Z,11.73
2019-05-10T11:53:41.482Z,11.98
2019-05-10T11:56:14.338Z,11.91
2019-05-10T11:58:54.208Z,12.06
2019-05-10T12:01:22.311Z,12.10
2019-05-10T12:03:56.747Z,12.29
2019-05-10T12:06:28.663Z,12.12
2019-05-10T12:10:42.931Z,12.19
2019-05-10T12:13:19.514Z,12.19
2019-05-10T12:15:45.382Z,12.48
2019-05-10T12:18:26.532Z,12.60
2019-05-10T12:21:04.126Z,12.38
2019-05-10T12:23:31.295Z,12.82
2019-05-10T12:27:12.842Z,12.69
2019-05-10T12:28:35.850Z,12.27
2019-05-10T12:31:12.280Z,12.60
2019-05-10T12:33:45.396Z,12.54
2019-05-10T12:36:25.442Z,12.68
2019-05-10T12:38:56.687Z,12.73
2019-05-10T12:41:31.491Z,12.50
2019-05-10T12:44:04.137Z,12.53
2019-05-10T12:46:41.898Z,12.52
2019-05-10T12:49:18.196Z,12.82
2019-05-10T12:51:51.375Z,12.49
2019-05-10T12:54:23.721Z,12.53
2019-05-10T12:56:58.631Z,12.56
2019-05-10T12:59:34.816Z,12.58
2019-05-10T13:02:04.425Z,12.77
2019-05-10T13:04:40.953Z,12.73
2019-05-10T13:07:11.220Z,12.79
2019-05-10T13:09:42.826Z,12.70
2019-05-10T13:12:14.268Z,12.54
2019-05-10T13:14:52.245Z,12.29
2019-05-10T13:17:22.350Z,12.41
2019-05-10T13:19:58.429Z,12.68
2019-05-10T13:22:37.127Z,12.52
2019-05-10T13:25:03.132Z,12.38
2019-05-10T13:27:34.587Z,12.57
2019-05-10T13:30:11.353Z,12.48
2019-05-10T13:32:52.902Z,12.65
2019-05-10T13:35:32.866Z,12.60
2019-05-10T13:38:06.453Z,12.38
2019-05-10T13:40:45.651Z,12.13
2019-05-10T13:43:17.219Z,11.91
2019-05-10T13:45:47.787Z,11.89
2019-05-10T13:48:19.180Z,12.04
2019-05-10T13:50:50.978Z,11.95
2019-05-10T13:53:23.281Z,12.01
2019-05-10T13:55:55.021Z,12.09
2019-05-10T13:58:26.401Z,11.92
2019-05-10T14:00:57.655Z,11.87
2019-05-10T14:03:43.276Z,12.05
2019-05-10T14:06:02.650Z,11.91
2019-05-10T14:08:36.908Z,12.01
2019-05-10T14:11:10.303Z,12.08
2019-05-10T14:13:44.275Z,11.96
2019-05-10T14:16:19.616Z,12.07
2019-05-10T14:18:52.128Z,12.00
2019-05-10T14:21:23.767Z,12.07
2019-05-10T14:23:56.929Z,11.82
2019-05-10T14:26:28.643Z,11.82
2019-05-10T14:29:00.736Z,11.64
2019-05-10T14:31:32.185Z,11.92
2019-05-10T14:34:19.015Z,12.03
2019-05-10T14:36:41.151Z,11.94
2019-05-10T14:39:10.964Z,12.16
2019-05-10T14:41:45.334Z,12.11
2019-05-10T14:44:17.117Z,12.22
2019-05-10T14:46:49.189Z,12.15
2019-05-10T14:49:20.810Z,11.98
2019-05-10T14:51:58.824Z,11.73
2019-05-10T14:54:42.275Z,11.61
2019-05-10T14:57:00.915Z,11.84
2019-05-10T14:59:32.464Z,11.83
2019-05-10T15:02:04.144Z,11.87
2019-05-10T15:04:46.426Z,11.95
2019-05-10T15:07:14.163Z,11.98
2019-05-10T15:09:43.378Z,11.87
2019-05-10T15:12:35.516Z,11.69
2019-05-10T15:15:09.435Z,11.90
2019-05-10T15:17:40.844Z,12.07
2019-05-10T15:20:12.957Z,11.85
2019-05-10T15:22:44.589Z,11.90
2019-05-10T15:25:16.138Z,11.78
2019-05-10T15:27:54.593Z,11.73
2019-05-10T15:30:24.054Z,11.78
2019-05-10T15:32:55.905Z,11.81
2019-05-10T15:35:31.767Z,11.58
2019-05-10T15:38:10.228Z,11.54
2019-05-10T15:40:44.365Z,11.73
2019-05-10T15:43:19.004Z,11.76
2019-05-10T15:45:52.760Z,11.58
2019-05-10T15:48:26.139Z,11.56
2019-05-10T15:50:58.055Z,11.53
2019-05-10T15:53:29.341Z,11.45
2019-05-10T15:56:04.075Z,11.53
2019-05-10T15:58:42.068Z,11.65
2019-05-10T16:01:09.609Z,11.47
2019-05-10T16:03:42.805Z,11.72
2019-05-10T16:06:18.767Z,11.90
2019-05-10T16:08:50.147Z,12.09
2019-05-10T16:11:21.557Z,12.32
2019-05-10T16:13:54.867Z,12.09
2019-05-10T16:16:30.359Z,12.11
2019-05-10T16:19:01.208Z,11.59
2019-05-10T16:21:53.984Z,11.71
2019-05-10T16:24:26.122Z,11.84
2019-05-10T16:27:01.525Z,11.86
2019-05-10T16:29:40.245Z,11.98
2019-05-10T16:32:09.918Z,11.68
2019-05-10T16:34:41.519Z,11.71
2019-05-10T16:37:16.251Z,11.82
2019-05-10T16:39:48.061Z,11.89
2019-05-10T16:42:19.423Z,11.66
2019-05-10T16:44:50.642Z,11.85
2019-05-10T16:47:23.075Z,11.78
2019-05-10T16:49:55.242Z,11.69
2019-05-10T16:52:28.214Z,11.61
2019-05-10T16:55:03.498Z,11.66
2019-05-10T16:57:37.542Z,11.89
2019-05-10T17:00:08.135Z,12.05
2019-05-10T17:02:41.940Z,11.98
2019-05-10T17:05:15.151Z,11.88
2019-05-10T17:07:45.636Z,11.74
2019-05-10T17:10:17.150Z,11.95
2019-05-10T17:12:48.331Z,11.88
2019-05-10T17:15:20.011Z,11.97
2019-05-10T17:17:51.431Z,11.79
2019-05-10T17:20:22.936Z,11.75
2019-05-10T17:22:54.738Z,11.68
2019-05-10T17:25:26.182Z,11.66
2019-05-10T17:28:00.621Z,11.75
2019-05-10T17:30:32.029Z,11.60
2019-05-10T17:33:04.474Z,11.77
2019-05-10T17:35:41.470Z,11.63
2019-05-10T17:38:14.145Z,11.67
2019-05-10T17:40:47.408Z,11.65
2019-05-10T17:43:20.926Z,11.65
2019-05-10T17:45:48.238Z,11.72
2019-05-10T17:48:20.046Z,11.89
2019-05-10T17:50:51.341Z,11.59
2019-05-10T17:53:24.260Z,11.58
2019-05-10T17:55:59.373Z,11.40
2019-05-10T17:58:34.010Z,11.25
2019-05-10T18:01:01.328Z,11.14
2019-05-10T18:03:32.644Z,10.96
2019-05-10T18:06:03.964Z,11.01
2019-05-10T18:08:35.181Z,10.99
2019-05-10T18:11:06.428Z,11.17
2019-05-10T18:13:40.934Z,11.08
2019-05-10T18:16:11.052Z,11.16
2019-05-10T18:18:46.900Z,11.19
2019-05-10T18:21:21.758Z,11.22
2019-05-10T18:23:52.819Z,11.30
2019-05-10T18:26:24.031Z,11.19
2019-05-10T18:28:55.365Z,11.02
2019-05-10T18:31:27.104Z,10.96
2019-05-10T18:33:58.539Z,11.14
2019-05-10T18:36:50.610Z,11.08
2019-05-10T18:39:03.304Z,10.97
2019-05-10T18:41:34.508Z,10.90
2019-05-10T18:44:07.537Z,11.13
2019-05-10T18:46:38.767Z,10.69
2019-05-10T18:49:10.449Z,10.66
2019-05-10T18:51:42.212Z,10.71
2019-05-10T18:54:13.521Z,10.57
2019-05-10T18:56:45.897Z,10.61
2019-05-10T18:59:17.457Z,10.55
2019-05-10T19:01:48.722Z,10.68
2019-05-10T19:04:20.290Z,10.74
2019-05-10T19:07:01.334Z,10.71
2019-05-10T19:09:24.607Z,10.72
2019-05-10T19:11:56.095Z,10.79
2019-05-10T19:14:29.829Z,10.61
2019-05-10T19:17:03.795Z,10.69
2019-05-10T19:19:37.450Z,10.70
2019-05-10T19:22:08.931Z,10.63
2019-05-10T19:24:40.671Z,10.55
2019-05-10T19:27:12.524Z,10.44
2019-05-10T19:29:46.108Z,10.45
2019-05-10T19:32:20.254Z,10.47
2019-05-10T19:34:57.088Z,10.44
2019-05-10T19:37:31.314Z,10.44
2019-05-10T19:39:59.910Z,10.33
2019-05-10T19:42:32.039Z,10.30
2019-05-10T19:45:04.414Z,10.30
2019-05-10T19:47:37.277Z,10.44
2019-05-10T19:50:09.134Z,10.31
2019-05-10T19:52:40.451Z,10.26
2019-05-10T19:55:19.270Z,10.16
2019-05-10T19:57:49.575Z,10.15
2019-05-10T20:00:19.208Z,10.06
2019-05-10T20:02:50.436Z,10.21
2019-05-10T20:05:26.143Z,10.18
2019-05-10T20:07:57.876Z,10.16
2019-05-10T20:10:29.121Z,10.05
2019-05-10T20:13:00.308Z,9.85
2019-05-10T20:15:31.516Z,9.81
2019-05-10T20:18:02.868Z,9.90
2019-05-10T20:20:34.736Z,9.69
2019-05-10T20:23:06.660Z,9.70
2019-05-10T20:25:37.841Z,9.86
2019-05-10T20:28:09.291Z,9.78
2019-05-10T20:30:42.533Z,9.82
2019-05-10T20:33:34.260Z,9.93
2019-05-10T20:36:05.551Z,9.92
2019-05-10T20:38:36.829Z,9.88
2019-05-10T20:41:08.030Z,9.95
2019-05-10T20:43:39.324Z,9.81
2019-05-10T20:46:11.585Z,9.72
2019-05-10T20:48:42.960Z,9.71
2019-05-10T20:51:14.723Z,9.69
2019-05-10T20:53:48.814Z,9.58
2019-05-10T20:56:20.046Z,9.38
2019-05-10T20:58:51.465Z,9.22
2019-05-10T21:01:22.870Z,9.19
2019-05-10T21:03:54.076Z,9.21
2019-05-10T21:06:26.360Z,9.11
2019-05-10T21:08:57.631Z,9.20
2019-05-10T21:11:30.721Z,9.30
2019-05-10T21:14:02.680Z,9.24
2019-05-10T21:16:33.969Z,9.20
2019-05-10T21:19:05.217Z,8.94
2019-05-10T21:21:36.538Z,8.94
2019-05-10T21:24:08.255Z,9.01
2019-05-10T21:26:39.538Z,8.91
2019-05-10T21:29:11.344Z,8.94
2019-05-10T21:31:43.390Z,8.81
2019-05-10T21:34:15.143Z,8.76
2019-05-10T21:36:46.857Z,8.88
2019-05-10T21:39:18.344Z,8.78
2019-05-10T21:41:51.196Z,8.80
2019-05-10T21:44:22.816Z,8.72
2019-05-10T21:46:54.151Z,8.94
2019-05-10T21:49:25.490Z,8.80
2019-05-10T21:51:58.222Z,8.82
2019-05-10T21:54:29.523Z,8.97
2019-05-10T21:57:00.856Z,8.80
2019-05-10T21:59:32.208Z,8.77
2019-05-10T22:02:03.623Z,8.87
2019-05-10T22:04:34.969Z,8.79
2019-05-10T22:07:07.442Z,8.97
2019-05-10T22:09:38.791Z,8.80
2019-05-10T22:12:10.139Z,8.81
2019-05-10T22:14:41.423Z,8.91
2019-05-10T22:17:12.736Z,8.80
2019-05-10T22:19:44.165Z,8.89
2019-05-10T22:22:16.445Z,8.81
2019-05-10T22:24:47.836Z,8.92
2019-05-10T22:27:19.081Z,8.82
2019-05-10T22:29:50.504Z,8.77
2019-05-10T22:32:21.706Z,9.04
2019-05-10T22:34:53.593Z,9.00
2019-05-10T22:37:24.899Z,8.86
2019-05-10T22:39:56.776Z,8.78
2019-05-10T22:42:30.430Z,8.68
2019-05-10T22:45:01.829Z,8.53
2019-05-10T22:48:01.897Z,8.56
2019-05-10T22:50:33.211Z,8.48
2019-05-10T22:53:04.421Z,8.40
2019-05-10T22:55:35.792Z,8.43
2019-05-10T22:58:07.074Z,8.30
2019-05-10T23:00:38.970Z,8.35
2019-05-10T23:03:10.173Z,8.33
2019-05-10T23:05:41.418Z,8.34
2019-05-10T23:08:12.650Z,8.45
2019-05-10T23:10:43.878Z,8.39
2019-05-10T23:13:16.703Z,8.39
2019-05-10T23:15:48.210Z,8.49
2019-05-10T23:18:22.232Z,8.52
2019-05-10T23:20:53.435Z,8.28
2019-05-10T23:23:25.072Z,8.26
2019-05-10T23:25:56.337Z,8.22
2019-05-10T23:28:28.055Z,8.35
2019-05-10T23:30:59.239Z,8.25
2019-05-10T23:33:30.484Z,8.27
2019-05-10T23:36:02.234Z,8.18
2019-05-10T23:38:33.406Z,8.21
2019-05-10T23:41:04.556Z,8.08
2019-05-10T23:43:36.361Z,8.12
2019-05-10T23:46:11.451Z,8.15
2019-05-10T23:48:42.664Z,8.03
2019-05-10T23:51:13.885Z,7.98
2019-05-10T23:53:45.165Z,7.96
2019-05-10T23:56:16.613Z,7.91
2019-05-10T23:58:47.800Z,7.84
